sensor_id;sensor_type;location;lat;lon;timestamp;temperature;humidity
12977;DHT22;6553;48.412;9.514;2023-04-01T00:01:05;18.80;55.70
12977;DHT22;6553;48.412;9.514;2023-04-01T00:03:31;18.80;55.70
12977;DHT22;6553;48.412;9.514;2023-04-01T00:05:59;18.80;55.80
12977;DHT22;6553;48.412;9.514;2023-04-01T00:08:26;18.80;55.70
12977;DHT22;6553;48.412;9.514;2023-04-01T00:10:53;18.80;55.80
12977;DHT22;6553;48.412;9.514;2023-04-01T00:13:19;18.80;55.70
12977;DHT22;6553;48.412;9.514;2023-04-01T00:15:47;18.80;55.70
12977;DHT22;6553;48.412;9.514;2023-04-01T00:18:13;18.80;55.70
12977;DHT22;6553;48.412;9.514;2023-04-01T00:20:42;18.80;55.70
12977;DHT22;6553;48.412;9.514;2023-04-01T00:23:09;18.80;55.70
12977;DHT22;6553;48.412;9.514;2023-04-01T00:25:35;18.80;55.70
12977;DHT22;6553;48.412;9.514;2023-04-01T00:28:00;18.80;55.70
12977;DHT22;6553;48.412;9.514;2023-04-01T00:30:26;18.80;55.70
12977;DHT22;6553;48.412;9.514;2023-04-01T00:32:52;18.80;55.70
12977;DHT22;6553;48.412;9.514;2023-04-01T00:35:19;18.80;55.80
12977;DHT22;6553;48.412;9.514;2023-04-01T00:37:45;18.80;55.70
12977;DHT22;6553;48.412;9.514;2023-04-01T00:40:24;18.80;55.70
12977;DHT22;6553;48.412;9.514;2023-04-01T00:42:55;18.80;55.90
12977;DHT22;6553;48.412;9.514;2023-04-01T00:47:56;18.80;55.70
12977;DHT22;6553;48.412;9.514;2023-04-01T00:50:28;18.70;55.70
12977;DHT22;6553;48.412;9.514;2023-04-01T00:52:56;18.80;55.70
12977;DHT22;6553;48.412;9.514;2023-04-01T00:55:25;18.80;55.70
12977;DHT22;6553;48.412;9.514;2023-04-01T00:57:55;18.70;55.60
12977;DHT22;6553;48.412;9.514;2023-04-01T01:00:24;18.80;55.70
12977;DHT22;6553;48.412;9.514;2023-04-01T01:02:51;18.80;55.70
12977;DHT22;6553;48.412;9.514;2023-04-01T01:05:23;18.80;55.70
12977;DHT22;6553;48.412;9.514;2023-04-01T01:08:11;18.70;55.60
12977;DHT22;6553;48.412;9.514;2023-04-01T01:10:43;18.80;55.70
12977;DHT22;6553;48.412;9.514;2023-04-01T01:13:29;18.70;55.60
12977;DHT22;6553;48.412;9.514;2023-04-01T01:16:18;18.80;55.70
12977;DHT22;6553;48.412;9.514;2023-04-01T01:22:21;18.70;55.60
12977;DHT22;6553;48.412;9.514;2023-04-01T01:37:43;18.80;55.70
12977;DHT22;6553;48.412;9.514;2023-04-01T01:40:12;18.70;55.60
12977;DHT22;6553;48.412;9.514;2023-04-01T01:42:45;18.80;55.70
12977;DHT22;6553;48.412;9.514;2023-04-01T01:45:19;18.80;55.70
12977;DHT22;6553;48.412;9.514;2023-04-01T01:47:47;18.80;55.70
12977;DHT22;6553;48.412;9.514;2023-04-01T01:50:15;18.80;55.80
12977;DHT22;6553;48.412;9.514;2023-04-01T01:52:43;18.80;55.70
12977;DHT22;6553;48.412;9.514;2023-04-01T01:55:44;18.80;55.70
12977;DHT22;6553;48.412;9.514;2023-04-01T01:58:25;18.70;55.60
12977;DHT22;6553;48.412;9.514;2023-04-01T02:01:00;18.80;55.70
12977;DHT22;6553;48.412;9.514;2023-04-01T02:03:30;18.80;55.70
12977;DHT22;6553;48.412;9.514;2023-04-01T02:06:04;18.80;55.70
12977;DHT22;6553;48.412;9.514;2023-04-01T02:08:43;18.80;55.70
12977;DHT22;6553;48.412;9.514;2023-04-01T02:11:32;18.80;55.70
12977;DHT22;6553;48.412;9.514;2023-04-01T02:14:10;18.80;55.70
12977;DHT22;6553;48.412;9.514;2023-04-01T02:16:45;18.70;55.70
12977;DHT22;6553;48.412;9.514;2023-04-01T02:19:13;18.80;55.70
12977;DHT22;6553;48.412;9.514;2023-04-01T02:21:42;18.80;55.70
12977;DHT22;6553;48.412;9.514;2023-04-01T02:24:13;18.80;55.70
12977;DHT22;6553;48.412;9.514;2023-04-01T02:26:40;18.80;55.70
12977;DHT22;6553;48.412;9.514;2023-04-01T02:29:09;18.70;55.70
12977;DHT22;6553;48.412;9.514;2023-04-01T02:31:37;18.80;55.70
12977;DHT22;6553;48.412;9.514;2023-04-01T02:34:04;18.80;55.70
12977;DHT22;6553;48.412;9.514;2023-04-01T02:36:30;18.70;55.60
12977;DHT22;6553;48.412;9.514;2023-04-01T02:38:57;18.70;55.60
12977;DHT22;6553;48.412;9.514;2023-04-01T02:41:28;18.70;55.60
12977;DHT22;6553;48.412;9.514;2023-04-01T02:43:53;18.70;55.60
12977;DHT22;6553;48.412;9.514;2023-04-01T02:46:20;18.70;55.60
12977;DHT22;6553;48.412;9.514;2023-04-01T02:48:46;18.80;55.70
12977;DHT22;6553;48.412;9.514;2023-04-01T02:51:12;18.80;55.70
12977;DHT22;6553;48.412;9.514;2023-04-01T02:53:38;18.80;55.70
12977;DHT22;6553;48.412;9.514;2023-04-01T02:56:04;18.80;55.70
12977;DHT22;6553;48.412;9.514;2023-04-01T02:58:30;18.70;55.60
12977;DHT22;6553;48.412;9.514;2023-04-01T03:00:55;18.70;55.60
12977;DHT22;6553;48.412;9.514;2023-04-01T03:03:21;18.80;55.70
12977;DHT22;6553;48.412;9.514;2023-04-01T03:05:47;18.80;55.70
12977;DHT22;6553;48.412;9.514;2023-04-01T03:08:13;18.80;55.70
12977;DHT22;6553;48.412;9.514;2023-04-01T03:10:39;18.80;55.70
12977;DHT22;6553;48.412;9.514;2023-04-01T03:13:05;18.70;55.60
12977;DHT22;6553;48.412;9.514;2023-04-01T03:15:31;18.70;55.60
12977;DHT22;6553;48.412;9.514;2023-04-01T03:17:57;18.70;55.60
12977;DHT22;6553;48.412;9.514;2023-04-01T03:20:23;18.70;55.60
12977;DHT22;6553;48.412;9.514;2023-04-01T03:22:49;18.80;55.70
12977;DHT22;6553;48.412;9.514;2023-04-01T03:25:15;18.70;55.60
12977;DHT22;6553;48.412;9.514;2023-04-01T03:27:41;18.70;55.60
12977;DHT22;6553;48.412;9.514;2023-04-01T03:30:08;18.70;55.60
12977;DHT22;6553;48.412;9.514;2023-04-01T03:32:42;18.80;55.70
12977;DHT22;6553;48.412;9.514;2023-04-01T03:35:08;18.80;55.70
12977;DHT22;6553;48.412;9.514;2023-04-01T03:37:36;18.80;55.70
12977;DHT22;6553;48.412;9.514;2023-04-01T03:40:02;18.80;55.70
12977;DHT22;6553;48.412;9.514;2023-04-01T03:42:29;18.70;55.60
12977;DHT22;6553;48.412;9.514;2023-04-01T03:44:56;18.70;55.60
12977;DHT22;6553;48.412;9.514;2023-04-01T03:47:22;18.80;55.70
12977;DHT22;6553;48.412;9.514;2023-04-01T03:49:48;18.70;56.20
12977;DHT22;6553;48.412;9.514;2023-04-01T03:52:14;18.80;55.70
12977;DHT22;6553;48.412;9.514;2023-04-01T03:54:40;18.70;55.60
12977;DHT22;6553;48.412;9.514;2023-04-01T03:57:07;18.70;55.60
12977;DHT22;6553;48.412;9.514;2023-04-01T03:59:33;18.70;55.60
12977;DHT22;6553;48.412;9.514;2023-04-01T04:01:59;18.70;55.60
12977;DHT22;6553;48.412;9.514;2023-04-01T04:04:26;18.70;55.60
12977;DHT22;6553;48.412;9.514;2023-04-01T04:06:53;18.70;55.60
12977;DHT22;6553;48.412;9.514;2023-04-01T04:09:23;18.70;55.60
12977;DHT22;6553;48.412;9.514;2023-04-01T04:11:49;18.70;55.60
12977;DHT22;6553;48.412;9.514;2023-04-01T04:14:16;18.70;55.60
12977;DHT22;6553;48.412;9.514;2023-04-01T04:16:42;18.70;55.50
12977;DHT22;6553;48.412;9.514;2023-04-01T04:19:09;18.70;55.50
12977;DHT22;6553;48.412;9.514;2023-04-01T04:21:35;18.70;55.60
12977;DHT22;6553;48.412;9.514;2023-04-01T04:24:02;18.70;55.50
12977;DHT22;6553;48.412;9.514;2023-04-01T04:26:45;18.70;55.50
12977;DHT22;6553;48.412;9.514;2023-04-01T04:29:10;18.70;55.50
12977;DHT22;6553;48.412;9.514;2023-04-01T04:31:36;18.70;55.50
12977;DHT22;6553;48.412;9.514;2023-04-01T04:34:02;18.70;55.50
12977;DHT22;6553;48.412;9.514;2023-04-01T04:36:31;18.70;55.50
12977;DHT22;6553;48.412;9.514;2023-04-01T04:38:57;18.70;55.50
12977;DHT22;6553;48.412;9.514;2023-04-01T04:41:27;18.70;55.50
12977;DHT22;6553;48.412;9.514;2023-04-01T04:43:55;18.70;55.50
12977;DHT22;6553;48.412;9.514;2023-04-01T04:46:23;18.70;55.50
12977;DHT22;6553;48.412;9.514;2023-04-01T04:48:56;18.70;55.50
12977;DHT22;6553;48.412;9.514;2023-04-01T04:51:22;18.70;55.50
12977;DHT22;6553;48.412;9.514;2023-04-01T04:53:48;18.70;55.50
12977;DHT22;6553;48.412;9.514;2023-04-01T04:56:22;18.70;55.50
12977;DHT22;6553;48.412;9.514;2023-04-01T04:58:59;18.70;55.50
12977;DHT22;6553;48.412;9.514;2023-04-01T05:01:36;18.70;55.50
12977;DHT22;6553;48.412;9.514;2023-04-01T05:04:02;18.70;55.50
12977;DHT22;6553;48.412;9.514;2023-04-01T05:06:28;18.70;55.40
12977;DHT22;6553;48.412;9.514;2023-04-01T05:08:55;18.70;55.50
12977;DHT22;6553;48.412;9.514;2023-04-01T05:11:22;18.70;55.50
12977;DHT22;6553;48.412;9.514;2023-04-01T05:13:50;18.70;55.50
12977;DHT22;6553;48.412;9.514;2023-04-01T05:16:19;18.70;55.50
12977;DHT22;6553;48.412;9.514;2023-04-01T05:18:46;18.70;55.50
12977;DHT22;6553;48.412;9.514;2023-04-01T05:21:14;18.70;55.50
12977;DHT22;6553;48.412;9.514;2023-04-01T05:23:41;18.70;55.50
12977;DHT22;6553;48.412;9.514;2023-04-01T05:26:10;18.70;55.50
12977;DHT22;6553;48.412;9.514;2023-04-01T05:28:38;18.70;55.50
12977;DHT22;6553;48.412;9.514;2023-04-01T05:31:06;18.70;55.50
12977;DHT22;6553;48.412;9.514;2023-04-01T05:33:37;18.80;55.60
12977;DHT22;6553;48.412;9.514;2023-04-01T05:36:12;18.70;55.50
12977;DHT22;6553;48.412;9.514;2023-04-01T05:38:40;18.80;55.60
12977;DHT22;6553;48.412;9.514;2023-04-01T05:41:10;18.70;55.50
12977;DHT22;6553;48.412;9.514;2023-04-01T05:43:41;18.80;55.60
12977;DHT22;6553;48.412;9.514;2023-04-01T05:46:25;18.80;55.60
12977;DHT22;6553;48.412;9.514;2023-04-01T05:48:57;18.80;55.60
12977;DHT22;6553;48.412;9.514;2023-04-01T05:51:24;18.70;55.50
12977;DHT22;6553;48.412;9.514;2023-04-01T05:53:50;18.80;55.60
12977;DHT22;6553;48.412;9.514;2023-04-01T05:56:17;18.70;55.40
12977;DHT22;6553;48.412;9.514;2023-04-01T05:58:51;18.80;55.60
12977;DHT22;6553;48.412;9.514;2023-04-01T06:01:20;18.80;55.60
12977;DHT22;6553;48.412;9.514;2023-04-01T06:03:46;18.80;55.60
12977;DHT22;6553;48.412;9.514;2023-04-01T06:06:26;18.70;55.50
12977;DHT22;6553;48.412;9.514;2023-04-01T06:09:07;18.80;55.60
12977;DHT22;6553;48.412;9.514;2023-04-01T06:12:06;18.70;55.50
12977;DHT22;6553;48.412;9.514;2023-04-01T06:15:20;18.80;55.60
12977;DHT22;6553;48.412;9.514;2023-04-01T06:20:46;18.70;55.40
12977;DHT22;6553;48.412;9.514;2023-04-01T06:26:37;18.80;55.50
12977;DHT22;6553;48.412;9.514;2023-04-01T06:38:05;18.80;55.40
12977;DHT22;6553;48.412;9.514;2023-04-01T06:44:16;18.80;55.40
12977;DHT22;6553;48.412;9.514;2023-04-01T06:46:57;18.80;55.40
12977;DHT22;6553;48.412;9.514;2023-04-01T06:50:01;18.80;55.40
12977;DHT22;6553;48.412;9.514;2023-04-01T06:53:06;18.80;55.40
12977;DHT22;6553;48.412;9.514;2023-04-01T06:56:17;18.80;55.50
12977;DHT22;6553;48.412;9.514;2023-04-01T06:59:05;18.80;55.40
12977;DHT22;6553;48.412;9.514;2023-04-01T07:01:40;18.80;55.50
12977;DHT22;6553;48.412;9.514;2023-04-01T07:06:55;18.80;55.50
12977;DHT22;6553;48.412;9.514;2023-04-01T07:09:32;18.80;55.60
12977;DHT22;6553;48.412;9.514;2023-04-01T07:15:38;18.90;55.70
12977;DHT22;6553;48.412;9.514;2023-04-01T07:18:16;18.80;55.70
12977;DHT22;6553;48.412;9.514;2023-04-01T07:20:48;18.90;55.80
12977;DHT22;6553;48.412;9.514;2023-04-01T07:23:23;18.80;55.80
12977;DHT22;6553;48.412;9.514;2023-04-01T07:26:17;18.80;55.70
12977;DHT22;6553;48.412;9.514;2023-04-01T07:29:10;18.80;55.70
12977;DHT22;6553;48.412;9.514;2023-04-01T07:37:58;18.80;55.70
12977;DHT22;6553;48.412;9.514;2023-04-01T07:41:10;18.80;55.70
12977;DHT22;6553;48.412;9.514;2023-04-01T07:46:53;18.80;55.70
12977;DHT22;6553;48.412;9.514;2023-04-01T07:49:31;18.80;55.70
12977;DHT22;6553;48.412;9.514;2023-04-01T07:58:10;18.80;55.70
12977;DHT22;6553;48.412;9.514;2023-04-01T08:07:10;18.80;55.70
12977;DHT22;6553;48.412;9.514;2023-04-01T08:13:31;18.80;55.60
12977;DHT22;6553;48.412;9.514;2023-04-01T08:22:40;18.80;55.70
12977;DHT22;6553;48.412;9.514;2023-04-01T08:25:27;18.80;55.70
12977;DHT22;6553;48.412;9.514;2023-04-01T08:30:56;18.90;55.70
12977;DHT22;6553;48.412;9.514;2023-04-01T08:33:30;18.80;55.60
12977;DHT22;6553;48.412;9.514;2023-04-01T08:36:06;18.80;55.70
12977;DHT22;6553;48.412;9.514;2023-04-01T08:38:43;18.80;55.70
12977;DHT22;6553;48.412;9.514;2023-04-01T08:51:43;18.80;55.70
12977;DHT22;6553;48.412;9.514;2023-04-01T08:54:48;18.80;56.20
12977;DHT22;6553;48.412;9.514;2023-04-01T08:58:27;18.80;55.70
12977;DHT22;6553;48.412;9.514;2023-04-01T09:04:45;18.80;55.70
12977;DHT22;6553;48.412;9.514;2023-04-01T09:08:28;18.80;55.70
12977;DHT22;6553;48.412;9.514;2023-04-01T09:26:07;18.80;55.70
12977;DHT22;6553;48.412;9.514;2023-04-01T09:43:56;18.80;55.70
12977;DHT22;6553;48.412;9.514;2023-04-01T09:46:36;18.80;55.60
12977;DHT22;6553;48.412;9.514;2023-04-01T09:52:47;18.80;55.60
12977;DHT22;6553;48.412;9.514;2023-04-01T10:01:52;18.80;55.60
12977;DHT22;6553;48.412;9.514;2023-04-01T10:16:19;18.90;55.70
12977;DHT22;6553;48.412;9.514;2023-04-01T10:43:06;18.90;55.70
12977;DHT22;6553;48.412;9.514;2023-04-01T10:55:44;18.90;55.70
12977;DHT22;6553;48.412;9.514;2023-04-01T11:11:30;18.90;55.70
12977;DHT22;6553;48.412;9.514;2023-04-01T11:14:26;18.90;55.70
12977;DHT22;6553;48.412;9.514;2023-04-01T11:20:50;18.90;55.70
12977;DHT22;6553;48.412;9.514;2023-04-01T11:23:39;18.90;55.80
12977;DHT22;6553;48.412;9.514;2023-04-01T11:26:32;18.90;55.70
12977;DHT22;6553;48.412;9.514;2023-04-01T11:29:35;18.90;55.70
12977;DHT22;6553;48.412;9.514;2023-04-01T11:39:03;18.90;55.70
12977;DHT22;6553;48.412;9.514;2023-04-01T11:42:34;18.90;55.70
12977;DHT22;6553;48.412;9.514;2023-04-01T11:45:39;18.90;55.70
12977;DHT22;6553;48.412;9.514;2023-04-01T12:01:43;18.90;55.70
12977;DHT22;6553;48.412;9.514;2023-04-01T12:07:43;19.00;55.80
12977;DHT22;6553;48.412;9.514;2023-04-01T12:10:21;18.90;55.70
12977;DHT22;6553;48.412;9.514;2023-04-01T12:13:25;18.90;55.70
12977;DHT22;6553;48.412;9.514;2023-04-01T12:22:53;18.90;55.70
12977;DHT22;6553;48.412;9.514;2023-04-01T12:28:41;18.90;56.30
12977;DHT22;6553;48.412;9.514;2023-04-01T12:31:47;19.00;55.80
12977;DHT22;6553;48.412;9.514;2023-04-01T12:37:45;18.90;55.70
12977;DHT22;6553;48.412;9.514;2023-04-01T12:40:45;18.90;55.80
12977;DHT22;6553;48.412;9.514;2023-04-01T12:50:20;19.00;55.80
12977;DHT22;6553;48.412;9.514;2023-04-01T12:55:46;19.00;55.80
12977;DHT22;6553;48.412;9.514;2023-04-01T12:58:38;18.90;55.80
12977;DHT22;6553;48.412;9.514;2023-04-01T13:07:22;18.90;55.80
12977;DHT22;6553;48.412;9.514;2023-04-01T13:13:23;19.00;55.80
12977;DHT22;6553;48.412;9.514;2023-04-01T13:16:19;18.90;55.70
12977;DHT22;6553;48.412;9.514;2023-04-01T13:19:07;18.90;55.80
12977;DHT22;6553;48.412;9.514;2023-04-01T13:22:07;18.90;55.70
12977;DHT22;6553;48.412;9.514;2023-04-01T13:27:44;18.90;56.30
12977;DHT22;6553;48.412;9.514;2023-04-01T13:33:34;19.00;55.80
12977;DHT22;6553;48.412;9.514;2023-04-01T13:42:39;19.00;55.80
12977;DHT22;6553;48.412;9.514;2023-04-01T13:51:06;19.00;55.70
12977;DHT22;6553;48.412;9.514;2023-04-01T14:00:03;19.00;55.80
12977;DHT22;6553;48.412;9.514;2023-04-01T14:06:17;19.00;55.70
12977;DHT22;6553;48.412;9.514;2023-04-01T14:15:21;19.00;55.70
12977;DHT22;6553;48.412;9.514;2023-04-01T14:26:53;18.90;55.60
12977;DHT22;6553;48.412;9.514;2023-04-01T14:29:38;19.00;55.70
12977;DHT22;6553;48.412;9.514;2023-04-01T14:32:39;18.90;55.60
12977;DHT22;6553;48.412;9.514;2023-04-01T14:50:14;19.00;55.70
12977;DHT22;6553;48.412;9.514;2023-04-01T14:52:51;19.00;55.70
12977;DHT22;6553;48.412;9.514;2023-04-01T14:55:33;19.00;55.70
12977;DHT22;6553;48.412;9.514;2023-04-01T14:58:12;19.00;55.70
12977;DHT22;6553;48.412;9.514;2023-04-01T15:00:59;19.00;55.70
12977;DHT22;6553;48.412;9.514;2023-04-01T15:03:51;19.00;55.70
12977;DHT22;6553;48.412;9.514;2023-04-01T15:07:00;18.90;55.60
12977;DHT22;6553;48.412;9.514;2023-04-01T15:12:29;19.00;55.70
12977;DHT22;6553;48.412;9.514;2023-04-01T15:15:04;19.00;55.70
12977;DHT22;6553;48.412;9.514;2023-04-01T15:17:51;18.90;55.60
12977;DHT22;6553;48.412;9.514;2023-04-01T15:30:02;18.90;55.60
12977;DHT22;6553;48.412;9.514;2023-04-01T15:32:53;18.90;55.60
12977;DHT22;6553;48.412;9.514;2023-04-01T15:47:41;18.90;55.60
12977;DHT22;6553;48.412;9.514;2023-04-01T16:04:57;18.90;55.70
12977;DHT22;6553;48.412;9.514;2023-04-01T16:07:43;18.90;55.70
12977;DHT22;6553;48.412;9.514;2023-04-01T16:10:38;18.90;55.70
12977;DHT22;6553;48.412;9.514;2023-04-01T16:16:40;18.90;55.70
12977;DHT22;6553;48.412;9.514;2023-04-01T16:22:09;18.90;55.70
12977;DHT22;6553;48.412;9.514;2023-04-01T16:30:09;18.90;55.70
12977;DHT22;6553;48.412;9.514;2023-04-01T16:36:26;18.90;55.70
12977;DHT22;6553;48.412;9.514;2023-04-01T16:47:36;18.80;55.70
12977;DHT22;6553;48.412;9.514;2023-04-01T16:50:24;18.90;55.70
12977;DHT22;6553;48.412;9.514;2023-04-01T16:53:00;18.80;55.70
12977;DHT22;6553;48.412;9.514;2023-04-01T16:58:36;18.90;55.80
12977;DHT22;6553;48.412;9.514;2023-04-01T17:01:24;18.80;55.70
12977;DHT22;6553;48.412;9.514;2023-04-01T17:04:19;18.80;55.70
12977;DHT22;6553;48.412;9.514;2023-04-01T17:06:56;18.90;55.70
12977;DHT22;6553;48.412;9.514;2023-04-01T17:12:44;19.00;55.90
12977;DHT22;6553;48.412;9.514;2023-04-01T17:15:46;19.00;56.40
12977;DHT22;6553;48.412;9.514;2023-04-01T17:18:47;19.00;56.10
12977;DHT22;6553;48.412;9.514;2023-04-01T17:25:19;18.90;56.10
12977;DHT22;6553;48.412;9.514;2023-04-01T17:28:03;18.90;56.10
12977;DHT22;6553;48.412;9.514;2023-04-01T17:30:44;18.90;56.00
12977;DHT22;6553;48.412;9.514;2023-04-01T17:33:42;18.90;56.10
12977;DHT22;6553;48.412;9.514;2023-04-01T17:39:13;18.90;56.00
12977;DHT22;6553;48.412;9.514;2023-04-01T17:42:06;18.90;56.00
12977;DHT22;6553;48.412;9.514;2023-04-01T17:44:53;18.90;56.00
12977;DHT22;6553;48.412;9.514;2023-04-01T17:48:08;18.90;56.00
12977;DHT22;6553;48.412;9.514;2023-04-01T18:00:27;18.90;56.00
12977;DHT22;6553;48.412;9.514;2023-04-01T18:06:08;18.80;55.90
12977;DHT22;6553;48.412;9.514;2023-04-01T18:08:49;18.90;56.00
12977;DHT22;6553;48.412;9.514;2023-04-01T18:17:31;18.80;55.80
12977;DHT22;6553;48.412;9.514;2023-04-01T18:25:48;18.80;55.90
12977;DHT22;6553;48.412;9.514;2023-04-01T18:28:38;18.80;55.80
12977;DHT22;6553;48.412;9.514;2023-04-01T18:31:24;18.80;55.80
12977;DHT22;6553;48.412;9.514;2023-04-01T18:34:18;18.90;56.00
12977;DHT22;6553;48.412;9.514;2023-04-01T18:37:00;18.80;55.90
12977;DHT22;6553;48.412;9.514;2023-04-01T18:43:10;18.80;55.80
12977;DHT22;6553;48.412;9.514;2023-04-01T18:51:43;18.80;55.80
12977;DHT22;6553;48.412;9.514;2023-04-01T18:57:18;18.80;55.80
12977;DHT22;6553;48.412;9.514;2023-04-01T18:59:54;18.80;55.80
12977;DHT22;6553;48.412;9.514;2023-04-01T19:02:40;18.80;55.80
12977;DHT22;6553;48.412;9.514;2023-04-01T19:05:40;18.80;55.80
12977;DHT22;6553;48.412;9.514;2023-04-01T19:08:34;18.80;55.80
12977;DHT22;6553;48.412;9.514;2023-04-01T19:11:06;18.80;55.80
12977;DHT22;6553;48.412;9.514;2023-04-01T19:14:19;18.80;55.80
12977;DHT22;6553;48.412;9.514;2023-04-01T19:17:16;18.80;55.80
12977;DHT22;6553;48.412;9.514;2023-04-01T19:19:59;18.80;55.80
12977;DHT22;6553;48.412;9.514;2023-04-01T19:22:33;18.80;55.80
12977;DHT22;6553;48.412;9.514;2023-04-01T19:25:29;18.80;55.80
12977;DHT22;6553;48.412;9.514;2023-04-01T19:34:37;18.80;55.70
12977;DHT22;6553;48.412;9.514;2023-04-01T19:37:37;18.80;55.70
12977;DHT22;6553;48.412;9.514;2023-04-01T19:40:46;18.80;55.80
12977;DHT22;6553;48.412;9.514;2023-04-01T19:43:38;18.80;55.70
12977;DHT22;6553;48.412;9.514;2023-04-01T19:48:58;18.80;55.80
12977;DHT22;6553;48.412;9.514;2023-04-01T20:03:42;18.80;55.70
12977;DHT22;6553;48.412;9.514;2023-04-01T20:06:25;18.80;55.80
12977;DHT22;6553;48.412;9.514;2023-04-01T20:15:37;18.80;55.70
12977;DHT22;6553;48.412;9.514;2023-04-01T20:18:18;18.80;55.70
12977;DHT22;6553;48.412;9.514;2023-04-01T20:21:02;18.80;55.80
12977;DHT22;6553;48.412;9.514;2023-04-01T20:23:54;18.80;55.70
12977;DHT22;6553;48.412;9.514;2023-04-01T20:26:46;18.80;55.70
12977;DHT22;6553;48.412;9.514;2023-04-01T20:31:57;18.80;55.70
12977;DHT22;6553;48.412;9.514;2023-04-01T20:40:26;18.80;56.30
12977;DHT22;6553;48.412;9.514;2023-04-01T20:43:29;18.80;55.70
12977;DHT22;6553;48.412;9.514;2023-04-01T20:46:23;18.80;55.70
12977;DHT22;6553;48.412;9.514;2023-04-01T20:49:20;18.80;55.70
12977;DHT22;6553;48.412;9.514;2023-04-01T21:12:43;18.80;55.70
12977;DHT22;6553;48.412;9.514;2023-04-01T21:15:55;18.80;55.70
12977;DHT22;6553;48.412;9.514;2023-04-01T21:18:49;18.80;55.60
12977;DHT22;6553;48.412;9.514;2023-04-01T21:32:55;18.80;55.60
12977;DHT22;6553;48.412;9.514;2023-04-01T21:35:51;18.70;55.50
12977;DHT22;6553;48.412;9.514;2023-04-01T21:50:06;18.70;55.50
12977;DHT22;6553;48.412;9.514;2023-04-01T22:02:21;18.80;55.60
12977;DHT22;6553;48.412;9.514;2023-04-01T22:05:04;18.80;55.60
12977;DHT22;6553;48.412;9.514;2023-04-01T22:07:47;18.80;55.60
12977;DHT22;6553;48.412;9.514;2023-04-01T22:13:32;18.80;55.50
12977;DHT22;6553;48.412;9.514;2023-04-01T22:19:22;18.80;55.60
12977;DHT22;6553;48.412;9.514;2023-04-01T22:22:17;18.70;55.50
12977;DHT22;6553;48.412;9.514;2023-04-01T22:27:49;18.80;55.60
12977;DHT22;6553;48.412;9.514;2023-04-01T22:30:33;18.80;55.60
12977;DHT22;6553;48.412;9.514;2023-04-01T22:50:33;18.80;55.60
12977;DHT22;6553;48.412;9.514;2023-04-01T22:59:08;18.80;55.60
12977;DHT22;6553;48.412;9.514;2023-04-01T23:01:59;18.80;55.60
12977;DHT22;6553;48.412;9.514;2023-04-01T23:04:39;18.80;55.70
12977;DHT22;6553;48.412;9.514;2023-04-01T23:10:41;18.80;55.60
12977;DHT22;6553;48.412;9.514;2023-04-01T23:13:20;18.80;55.60
12977;DHT22;6553;48.412;9.514;2023-04-01T23:15:52;18.80;55.60
12977;DHT22;6553;48.412;9.514;2023-04-01T23:18:30;18.80;55.60
12977;DHT22;6553;48.412;9.514;2023-04-01T23:24:19;18.70;55.50
12977;DHT22;6553;48.412;9.514;2023-04-01T23:27:03;18.80;55.60
12977;DHT22;6553;48.412;9.514;2023-04-01T23:29:36;18.80;55.60
12977;DHT22;6553;48.412;9.514;2023-04-01T23:32:23;18.80;55.60
12977;DHT22;6553;48.412;9.514;2023-04-01T23:34:56;18.80;55.60
12977;DHT22;6553;48.412;9.514;2023-04-01T23:37:25;18.80;55.60
12977;DHT22;6553;48.412;9.514;2023-04-01T23:39:54;18.80;55.60
12977;DHT22;6553;48.412;9.514;2023-04-01T23:42:30;18.80;55.60
12977;DHT22;6553;48.412;9.514;2023-04-01T23:45:02;18.80;55.60
12977;DHT22;6553;48.412;9.514;2023-04-01T23:47:32;18.80;55.60
12977;DHT22;6553;48.412;9.514;2023-04-01T23:50:04;18.80;55.60
12977;DHT22;6553;48.412;9.514;2023-04-01T23:52:41;18.70;55.50
